Time;durP1;ratioP1;P1;durP2;ratioP2;P2;SDS_P1;SDS_P2;PMS_P1;PMS_P2;Temp;Humidity;BMP_temperature;BMP_pressure;BME280_temperature;BME280_humidity;BME280_pressure;Samples;Min_cycle;Max_cycle;Signal;HPM_P1;HPM_P2
2022/06/04 00:01:26;;;;;;;0.50;0.50;;;11.60;99.90;;;;;;4999335;28;20051;-71
2022/06/04 00:03:53;;;;;;;0.80;0.80;;;11.60;99.90;;;;;;4982076;28;20050;-71
2022/06/04 00:06:18;;;;;;;0.85;0.80;;;11.60;99.90;;;;;;4981702;28;20398;-71
2022/06/04 00:08:44;;;;;;;1.80;1.70;;;11.60;99.90;;;;;;4981730;28;20042;-70
2022/06/04 00:16:38;;;;;;;0.45;0.45;;;11.50;99.90;;;;;;4961825;28;20447;-71
2022/06/04 00:19:04;;;;;;;0.40;0.40;;;11.50;99.90;;;;;;4962058;28;20059;-71
2022/06/04 00:21:29;;;;;;;0.88;0.70;;;11.50;99.90;;;;;;4962248;28;20061;-71
2022/06/04 00:23:55;;;;;;;0.70;0.70;;;11.40;99.90;;;;;;4979105;28;20069;-71
2022/06/04 00:26:22;;;;;;;0.40;0.40;;;11.40;99.90;;;;;;4967928;28;20133;-71
2022/06/04 00:28:48;;;;;;;0.60;0.60;;;11.40;99.90;;;;;;4981428;28;20066;-70
2022/06/04 00:31:16;;;;;;;3.00;1.00;;;11.40;99.90;;;;;;4998378;28;20060;-71
2022/06/04 00:33:42;;;;;;;0.50;0.50;;;11.40;99.90;;;;;;4981050;28;20042;-71
2022/06/04 00:36:07;;;;;;;1.13;1.02;;;11.30;99.90;;;;;;4982028;28;20049;-71
2022/06/04 00:38:34;;;;;;;0.73;0.73;;;11.40;99.90;;;;;;4981871;28;20058;-71
2022/06/04 00:41:02;;;;;;;0.63;0.63;;;11.30;99.90;;;;;;4975220;28;20054;-71
2022/06/04 00:43:28;;;;;;;1.08;0.98;;;11.40;99.90;;;;;;4961750;28;20078;-71
2022/06/04 00:46:12;;;;;;;0.70;0.70;;;11.30;99.90;;;;;;4961463;28;20050;-71
2022/06/04 00:48:37;;;;;;;0.45;0.40;;;11.30;99.90;;;;;;4978562;28;20046;-71
2022/06/04 00:51:05;;;;;;;0.75;0.75;;;11.30;99.90;;;;;;4961718;28;20061;-70
2022/06/04 00:53:31;;;;;;;0.65;0.65;;;11.30;99.90;;;;;;4961940;28;20047;-71
2022/06/04 00:56:09;;;;;;;0.40;0.40;;;11.30;99.90;;;;;;4961426;28;20130;-72
2022/06/04 00:59:26;;;;;;;0.60;0.60;;;11.30;99.90;;;;;;4994255;28;20046;-71
2022/06/04 01:02:18;;;;;;;0.68;0.68;;;11.30;99.90;;;;;;4953469;28;20062;-71
2022/06/04 01:05:02;;;;;;;0.93;0.88;;;11.30;99.90;;;;;;4980719;28;20510;-71
2022/06/04 01:07:53;;;;;;;0.50;0.50;;;11.20;99.90;;;;;;4980555;28;20050;-71
2022/06/04 01:10:43;;;;;;;0.45;0.43;;;11.20;99.90;;;;;;4980362;28;20054;-71
2022/06/04 01:13:18;;;;;;;0.57;0.57;;;11.20;99.90;;;;;;4967267;28;20061;-71
2022/06/04 01:15:52;;;;;;;0.75;0.75;;;11.20;99.90;;;;;;4997655;28;20058;-71
2022/06/04 01:18:42;;;;;;;0.70;0.70;;;11.10;99.90;;;;;;4980409;28;20054;-70
2022/06/04 01:21:20;;;;;;;1.98;1.50;;;11.20;99.90;;;;;;4980538;28;20070;-71
2022/06/04 01:24:30;;;;;;;0.82;0.77;;;11.20;99.90;;;;;;4997192;28;20053;-71
2022/06/04 01:26:59;;;;;;;0.60;0.60;;;11.20;99.90;;;;;;4964481;28;20138;-71
2022/06/04 01:29:38;;;;;;;0.80;0.80;;;11.20;99.90;;;;;;4948883;28;20078;-70
2022/06/04 01:32:36;;;;;;;4.00;0.63;;;11.10;99.90;;;;;;4960855;28;20472;-71
2022/06/04 01:35:13;;;;;;;0.75;0.75;;;11.10;99.90;;;;;;4960812;28;20051;-71
2022/06/04 01:37:56;;;;;;;0.55;0.55;;;11.10;99.90;;;;;;4961093;28;20038;-71
2022/06/04 01:43:19;;;;;;;1.05;0.82;;;11.10;99.90;;;;;;4961557;28;20082;-71
2022/06/04 01:45:46;;;;;;;0.65;0.65;;;11.10;99.90;;;;;;4977753;28;20154;-71
2022/06/04 01:48:13;;;;;;;0.60;0.60;;;11.10;99.90;;;;;;4960889;28;20046;-71
2022/06/04 01:50:53;;;;;;;0.73;0.73;;;11.10;99.90;;;;;;4977749;28;20045;-70
2022/06/04 01:53:22;;;;;;;0.68;0.68;;;11.00;99.90;;;;;;4977344;28;20047;-71
2022/06/04 01:55:56;;;;;;;0.55;0.55;;;11.00;99.90;;;;;;4960850;28;20146;-71
2022/06/04 01:58:27;;;;;;;;;;;11.00;99.90;;;;;;4964549;28;20379;-71
2022/06/04 02:01:04;;;;;;;0.50;0.50;;;11.00;99.90;;;;;;4996095;28;19969;-72
2022/06/04 02:03:38;;;;;;;0.50;0.50;;;11.00;99.90;;;;;;4980563;28;20328;-71
2022/06/04 02:06:19;;;;;;;0.80;0.80;;;11.00;99.90;;;;;;4979855;28;20089;-72
2022/06/04 02:08:51;;;;;;;0.80;0.68;;;10.90;99.90;;;;;;4980030;28;20081;-71
2022/06/04 02:11:20;;;;;;;0.85;0.57;;;10.90;99.90;;;;;;4979956;28;20126;-70
2022/06/04 02:13:51;;;;;;;3.72;0.90;;;10.80;99.90;;;;;;4978084;28;20344;-70
2022/06/04 02:16:27;;;;;;;0.50;0.50;;;10.80;99.90;;;;;;4977527;28;20082;-71
2022/06/04 02:18:56;;;;;;;0.77;0.68;;;10.80;99.90;;;;;;4959773;28;20085;-70
2022/06/04 02:21:23;;;;;;;1.13;0.93;;;10.80;99.90;;;;;;4959741;28;20512;-71
2022/06/04 02:23:49;;;;;;;0.90;0.82;;;10.80;99.90;;;;;;4977224;28;20043;-71
2022/06/04 02:26:16;;;;;;;0.73;0.73;;;10.70;99.90;;;;;;4977124;28;20129;-71
2022/06/04 02:28:42;;;;;;;10.35;2.08;;;10.70;99.90;;;;;;4962814;28;20133;-70
2022/06/04 02:31:35;;;;;;;0.50;0.50;;;10.70;99.90;;;;;;4979773;28;20130;-71
2022/06/04 02:34:06;;;;;;;1.13;0.57;;;10.70;99.90;;;;;;4961763;28;20133;-70
2022/06/04 02:36:50;;;;;;;0.50;0.50;;;10.60;99.90;;;;;;4978752;28;20046;-70
2022/06/04 02:39:19;;;;;;;;;;;10.60;99.90;;;;;;4979532;28;20125;-71
2022/06/04 02:42:01;;;;;;;0.93;0.90;;;10.50;99.90;;;;;;4963197;28;20277;-71
2022/06/04 02:44:29;;;;;;;1.27;1.17;;;10.50;99.90;;;;;;4985316;28;20043;-70
2022/06/04 02:47:13;;;;;;;0.55;0.55;;;10.40;99.90;;;;;;4959189;28;20137;-72
2022/06/04 02:49:42;;;;;;;0.57;0.57;;;10.40;99.90;;;;;;4976785;28;20051;-71
2022/06/04 02:52:12;;;;;;;1.67;0.88;;;10.40;99.90;;;;;;4959806;28;20058;-71
2022/06/04 02:54:44;;;;;;;0.50;0.50;;;10.40;99.90;;;;;;4959667;28;20485;-71
2022/06/04 02:57:13;;;;;;;0.60;0.60;;;10.40;99.90;;;;;;4959082;28;20114;-71
2022/06/04 02:59:40;;;;;;;1.00;1.00;;;10.40;99.90;;;;;;4961190;28;20053;-71
2022/06/04 03:02:08;;;;;;;0.77;0.77;;;10.40;99.90;;;;;;4995728;28;20506;-71
2022/06/04 03:04:50;;;;;;;1.08;0.98;;;10.40;99.90;;;;;;4979198;28;20089;-71
2022/06/04 03:07:18;;;;;;;0.52;0.52;;;10.40;99.90;;;;;;4978690;28;20042;-70
2022/06/04 03:09:44;;;;;;;0.60;0.60;;;10.40;99.90;;;;;;4945571;28;20080;-71
2022/06/04 03:12:12;;;;;;;1.13;0.88;;;10.30;99.90;;;;;;4978254;28;20046;-70
2022/06/04 03:14:37;;;;;;;0.60;0.60;;;10.40;99.90;;;;;;4973804;28;20074;-71
2022/06/04 03:17:06;;;;;;;0.52;0.52;;;10.40;99.90;;;;;;4959008;28;20078;-71
2022/06/04 03:19:32;;;;;;;0.85;0.73;;;10.40;99.90;;;;;;4975957;28;20050;-71
2022/06/04 03:21:59;;;;;;;1.10;0.93;;;10.40;99.90;;;;;;4958982;28;20062;-71
2022/06/04 03:24:26;;;;;;;0.68;0.60;;;10.40;99.90;;;;;;4942433;28;20054;-72
2022/06/04 03:26:51;;;;;;;0.55;0.50;;;10.40;99.90;;;;;;4976388;28;20422;-71
2022/06/04 03:29:17;;;;;;;0.75;0.50;;;10.40;99.90;;;;;;4962899;28;20092;-71
2022/06/04 03:31:43;;;;;;;0.38;0.38;;;10.50;99.90;;;;;;4995181;28;20061;-71
2022/06/04 03:34:09;;;;;;;0.47;0.47;;;10.40;99.90;;;;;;4978095;28;20477;-71
2022/06/04 03:36:36;;;;;;;0.50;0.50;;;10.50;99.90;;;;;;4978516;28;20494;-71
2022/06/04 03:39:03;;;;;;;1.80;0.93;;;10.40;99.90;;;;;;4995263;28;20057;-71
2022/06/04 03:41:28;;;;;;;0.75;0.73;;;10.50;99.90;;;;;;4978233;28;20050;-70
2022/06/04 03:43:54;;;;;;;1.13;1.08;;;10.60;99.90;;;;;;4978716;28;20065;-71
2022/06/04 03:46:24;;;;;;;0.60;0.60;;;10.50;99.90;;;;;;4985077;28;20047;-70
2022/06/04 03:48:49;;;;;;;0.70;0.70;;;10.60;99.90;;;;;;4958995;28;20062;-71
2022/06/04 03:51:15;;;;;;;0.73;0.70;;;10.60;99.90;;;;;;4958975;28;20352;-70
2022/06/04 03:53:41;;;;;;;0.60;0.60;;;10.60;99.90;;;;;;4958887;28;20436;-71
2022/06/04 03:56:06;;;;;;;0.40;0.40;;;10.60;99.90;;;;;;4975787;28;20082;-71
2022/06/04 03:58:32;;;;;;;0.60;0.60;;;10.60;99.90;;;;;;4975496;28;20481;-71
2022/06/04 04:00:57;;;;;;;0.68;0.68;;;10.60;99.90;;;;;;4967425;28;20058;-70
2022/06/04 04:03:24;;;;;;;0.57;0.57;;;10.60;99.90;;;;;;4978504;28;20050;-70
2022/06/04 04:05:53;;;;;;;0.90;0.60;;;10.70;99.90;;;;;;4995288;28;20046;-70
2022/06/04 04:08:20;;;;;;;0.60;0.60;;;10.70;99.90;;;;;;4977752;28;20100;-71
2022/06/04 04:10:46;;;;;;;0.50;0.50;;;10.70;99.90;;;;;;4978187;28;20050;-70
2022/06/04 04:13:13;;;;;;;0.80;0.80;;;10.80;99.90;;;;;;4994948;28;20129;-70
2022/06/04 04:15:40;;;;;;;0.57;0.57;;;10.80;99.90;;;;;;4969288;28;20074;-71
2022/06/04 04:18:07;;;;;;;0.80;0.80;;;10.80;99.90;;;;;;4973313;28;20050;-71
2022/06/04 04:20:35;;;;;;;0.73;0.70;;;10.80;99.90;;;;;;4977898;28;20081;-71
2022/06/04 04:23:02;;;;;;;9.32;1.65;;;10.80;99.90;;;;;;4995104;28;20042;-71
2022/06/04 04:25:30;;;;;;;0.40;0.40;;;10.80;99.90;;;;;;4978559;28;20125;-71
2022/06/04 04:27:56;;;;;;;0.80;0.60;;;10.90;99.90;;;;;;4985502;28;20046;-71
2022/06/04 04:30:26;;;;;;;1.13;1.02;;;10.90;99.90;;;;;;4958224;28;20047;-71
2022/06/04 04:32:53;;;;;;;0.40;0.40;;;10.90;99.90;;;;;;4958350;28;20051;-70
2022/06/04 04:35:25;;;;;;;0.40;0.40;;;11.00;99.90;;;;;;4975939;28;20130;-72
2022/06/04 04:37:52;;;;;;;0.50;0.50;;;11.00;99.90;;;;;;4963187;28;20364;-72
2022/06/04 04:40:20;;;;;;;0.73;0.73;;;11.00;99.90;;;;;;4961617;28;20349;-72
2022/06/04 04:42:48;;;;;;;0.57;0.57;;;11.10;99.90;;;;;;4978999;28;20097;-72
2022/06/04 04:45:15;;;;;;;0.60;0.60;;;11.30;99.90;;;;;;4961367;28;20050;-77
2022/06/04 04:53:09;;;;;;;3.70;2.60;;;11.70;99.90;;;;;;5133441;27;20354;-69
2022/06/04 04:55:35;;;;;;;6.47;3.13;;;11.70;99.90;;;;;;5112107;28;20381;-72
2022/06/04 04:58:02;;;;;;;6.55;3.30;;;11.80;99.90;;;;;;5112715;28;20054;-72
2022/06/04 05:00:28;;;;;;;5.50;2.50;;;11.90;99.90;;;;;;5094620;28;20497;-72
2022/06/04 05:02:55;;;;;;;8.32;2.53;;;12.00;99.90;;;;;;5094775;28;20039;-71
2022/06/04 05:05:21;;;;;;;9.18;2.35;;;12.00;99.90;;;;;;5093110;28;20423;-71
2022/06/04 05:07:46;;;;;;;7.70;2.90;;;11.90;99.90;;;;;;5094717;28;20114;-71
2022/06/04 05:10:13;;;;;;;4.82;2.75;;;12.00;99.90;;;;;;5092043;28;20044;-71
2022/06/04 05:12:39;;;;;;;5.78;2.50;;;12.30;99.90;;;;;;5084397;28;20376;-71
2022/06/04 05:15:05;;;;;;;5.10;2.33;;;13.30;99.90;;;;;;5112030;28;20040;-72
2022/06/04 05:17:31;;;;;;;3.60;2.13;;;14.70;99.90;;;;;;5112439;28;20040;-72
2022/06/04 05:19:57;;;;;;;9.40;2.40;;;15.80;99.90;;;;;;5094122;28;20040;-73
2022/06/04 05:22:22;;;;;;;3.00;1.73;;;16.90;99.90;;;;;;5112126;28;20039;-73
2022/06/04 05:24:48;;;;;;;9.70;2.00;;;17.50;99.90;;;;;;5090993;28;20036;-71
2022/06/04 05:27:15;;;;;;;9.60;2.80;;;18.10;99.90;;;;;;5074863;28;20380;-71
2022/06/04 05:29:41;;;;;;;5.18;2.13;;;18.20;99.90;;;;;;5091526;28;20444;-71
2022/06/04 05:32:11;;;;;;;4.35;1.98;;;18.60;99.90;;;;;;5073524;28;20111;-71
2022/06/04 05:34:37;;;;;;;6.18;2.70;;;18.70;99.90;;;;;;5073445;28;20115;-71
2022/06/04 05:37:04;;;;;;;4.72;2.38;;;19.00;99.90;;;;;;5073951;28;20139;-71
2022/06/04 05:39:31;;;;;;;8.40;2.50;;;19.50;99.90;;;;;;5073695;28;20044;-71
2022/06/04 05:41:58;;;;;;;4.75;1.67;;;19.70;99.90;;;;;;5073644;28;20452;-71
2022/06/04 05:44:24;;;;;;;4.28;2.05;;;20.20;99.90;;;;;;5073195;28;20048;-71
2022/06/04 05:46:49;;;;;;;5.05;2.10;;;20.90;99.90;;;;;;5108942;28;20379;-71
2022/06/04 05:49:15;;;;;;;3.03;1.90;;;20.90;99.90;;;;;;5111638;28;20169;-72
2022/06/04 05:51:43;;;;;;;8.15;2.17;;;21.00;99.90;;;;;;5093868;28;20375;-71
2022/06/04 05:54:09;;;;;;;4.32;1.88;;;20.80;99.90;;;;;;5111890;28;20114;-72
2022/06/04 05:56:39;;;;;;;4.85;1.92;;;21.00;99.90;;;;;;5111102;28;20456;-72
2022/06/04 05:59:08;;;;;;;4.60;1.73;;;20.90;99.40;;;;;;5111248;28;20341;-71
2022/06/04 06:01:35;;;;;;;4.68;1.60;;;20.50;99.90;;;;;;5094339;28;20116;-72
2022/06/04 06:04:02;;;;;;;9.60;1.88;;;20.00;99.90;;;;;;5082452;28;20070;-70
2022/06/04 06:06:31;;;;;;;5.63;2.08;;;19.90;99.90;;;;;;5080504;28;20452;-70
2022/06/04 06:08:59;;;;;;;3.58;1.95;;;19.70;99.90;;;;;;5080313;28;20047;-73
2022/06/04 06:11:25;;;;;;;6.15;2.72;;;20.00;99.90;;;;;;5096815;28;20372;-72
2022/06/04 06:13:52;;;;;;;4.65;1.98;;;20.20;99.90;;;;;;5097252;28;20044;-72
2022/06/04 06:16:21;;;;;;;3.40;1.83;;;20.70;99.90;;;;;;5077356;28;20040;-72
2022/06/04 06:18:48;;;;;;;4.70;2.10;;;21.00;99.90;;;;;;5059486;28;20049;-72
2022/06/04 06:21:22;;;;;;;5.00;2.08;;;21.00;99.90;;;;;;5077372;28;20123;-72
2022/06/04 06:23:49;;;;;;;4.68;2.05;;;21.20;99.20;;;;;;5059662;28;20109;-72
2022/06/04 06:26:25;;;;;;;6.75;2.45;;;20.90;98.70;;;;;;5077028;28;20052;-74
2022/06/04 06:28:51;;;;;;;4.28;1.67;;;20.50;99.50;;;;;;5078465;28;20101;-72
2022/06/04 06:31:19;;;;;;;3.30;1.65;;;19.80;99.90;;;;;;5079949;28;20066;-72
2022/06/04 06:33:45;;;;;;;4.18;2.33;;;19.50;99.90;;;;;;5066080;28;20084;-72
2022/06/04 06:36:13;;;;;;;4.90;2.33;;;19.60;99.90;;;;;;5077325;28;20064;-72
2022/06/04 06:38:39;;;;;;;6.10;2.30;;;19.50;99.90;;;;;;5076837;28;20110;-71
2022/06/04 06:41:06;;;;;;;8.48;2.53;;;19.10;99.90;;;;;;5076390;28;20040;-72
2022/06/04 06:46:15;;;;;;;5.95;2.38;;;19.50;99.90;;;;;;5059057;28;20067;-73
2022/06/04 06:48:43;;;;;;;7.60;2.00;;;20.20;99.90;;;;;;5058720;28;20048;-72
2022/06/04 06:51:16;;;;;;;3.42;1.95;;;21.10;99.60;;;;;;5058468;28;20064;-73
2022/06/04 06:53:42;;;;;;;3.38;2.22;;;21.50;98.80;;;;;;5076474;28;20472;-72
2022/06/04 06:56:09;;;;;;;6.28;2.20;;;21.90;98.20;;;;;;5076371;28;20119;-72
2022/06/04 06:58:34;;;;;;;4.72;2.40;;;22.30;98.50;;;;;;5059093;28;20444;-72
2022/06/04 07:01:00;;;;;;;5.72;2.50;;;22.80;96.60;;;;;;5059295;28;20044;-72
2022/06/04 07:03:26;;;;;;;3.28;2.00;;;21.80;97.10;;;;;;5058781;28;20114;-72
2022/06/04 07:05:55;;;;;;;5.38;2.22;;;21.20;98.30;;;;;;5058415;28;20045;-72
2022/06/04 07:08:22;;;;;;;3.95;1.83;;;20.70;98.30;;;;;;5076143;28;20037;-72
2022/06/04 07:10:48;;;;;;;3.83;2.00;;;20.70;99.10;;;;;;5058954;28;20059;-72
2022/06/04 07:13:14;;;;;;;5.28;2.10;;;21.00;98.80;;;;;;5076546;28;20102;-72
2022/06/04 07:15:39;;;;;;;3.13;1.90;;;21.90;97.50;;;;;;5057745;28;20053;-72
2022/06/04 07:18:05;;;;;;;4.68;2.10;;;22.50;97.80;;;;;;5058541;28;20059;-73
2022/06/04 07:20:31;;;;;;;3.78;2.33;;;22.90;96.80;;;;;;5058865;28;20048;-72
2022/06/04 07:22:56;;;;;;;5.05;1.92;;;23.20;96.50;;;;;;5058735;28;20174;-72
2022/06/04 07:25:22;;;;;;;5.25;1.98;;;23.90;96.10;;;;;;5076058;28;20056;-73
2022/06/04 07:27:48;;;;;;;4.78;2.30;;;24.20;95.00;;;;;;5058907;28;20045;-72
2022/06/04 07:30:13;;;;;;;6.57;2.15;;;24.40;94.10;;;;;;5058338;28;20048;-72
2022/06/04 07:32:41;;;;;;;4.80;2.25;;;24.10;93.50;;;;;;5057951;28;20045;-73
2022/06/04 07:35:07;;;;;;;3.72;2.05;;;24.20;93.80;;;;;;5075708;28;20091;-72
2022/06/04 07:37:32;;;;;;;3.28;1.88;;;24.30;93.50;;;;;;5072148;28;20083;-72
2022/06/04 07:39:58;;;;;;;4.35;2.10;;;24.40;93.10;;;;;;5078504;28;20196;-72
2022/06/04 07:42:23;;;;;;;5.22;1.92;;;23.80;92.10;;;;;;5088509;28;20135;-70
2022/06/04 07:44:50;;;;;;;5.93;2.03;;;24.00;93.60;;;;;;5087777;28;20364;-70
2022/06/04 07:47:15;;;;;;;3.17;1.58;;;24.00;93.00;;;;;;5078108;28;20367;-70
2022/06/04 07:49:41;;;;;;;4.35;1.83;;;24.00;92.70;;;;;;5094398;28;20193;-71
2022/06/04 07:52:07;;;;;;;5.13;2.25;;;23.70;92.50;;;;;;5078420;28;20052;-72
2022/06/04 07:54:34;;;;;;;2.63;1.50;;;23.70;92.90;;;;;;5068487;28;20060;-72
2022/06/04 07:57:00;;;;;;;4.25;1.85;;;23.50;92.20;;;;;;5092128;28;20130;-71
2022/06/04 07:59:26;;;;;;;5.60;1.88;;;22.90;93.00;;;;;;5074352;28;20127;-71
2022/06/04 08:01:52;;;;;;;2.60;1.45;;;22.90;93.40;;;;;;5057453;28;20128;-71
2022/06/04 08:04:18;;;;;;;4.97;2.10;;;23.10;94.00;;;;;;5057944;28;20096;-71
2022/06/04 08:06:44;;;;;;;4.30;2.42;;;23.00;93.30;;;;;;5058067;28;20048;-72
2022/06/04 08:09:09;;;;;;;5.57;2.13;;;23.00;93.00;;;;;;5057510;28;20044;-71
2022/06/04 08:11:36;;;;;;;8.93;2.17;;;22.90;93.30;;;;;;5074935;28;20036;-71
2022/06/04 08:14:21;;;;;;;3.72;1.90;;;23.00;93.30;;;;;;5060923;28;20048;-71
2022/06/04 08:16:52;;;;;;;4.90;2.10;;;23.10;92.60;;;;;;5057581;28;20037;-71
2022/06/04 08:19:19;;;;;;;4.63;1.80;;;23.50;92.70;;;;;;5058439;28;20123;-71
2022/06/04 08:21:45;;;;;;;3.70;1.98;;;23.70;92.70;;;;;;5069492;28;20068;-71
2022/06/04 08:24:13;;;;;;;3.33;1.60;;;23.60;92.20;;;;;;5072554;28;20062;-72
2022/06/04 08:26:40;;;;;;;3.40;1.80;;;23.60;92.50;;;;;;5075470;28;20437;-72
2022/06/04 08:29:07;;;;;;;4.10;2.28;;;23.50;92.10;;;;;;5060979;28;20044;-72
2022/06/04 08:31:33;;;;;;;5.82;2.42;;;22.60;92.40;;;;;;5040456;28;20044;-71
2022/06/04 08:33:59;;;;;;;3.83;2.10;;;21.60;93.70;;;;;;5056852;28;20333;-71
2022/06/04 08:36:25;;;;;;;5.00;2.03;;;21.60;94.30;;;;;;5082567;28;20062;-71
2022/06/04 08:38:51;;;;;;;5.10;2.38;;;21.70;94.60;;;;;;5056219;28;20044;-72
2022/06/04 08:41:46;;;;;;;3.30;1.92;;;22.40;94.20;;;;;;5074528;28;20105;-71
2022/06/04 08:44:25;;;;;;;3.67;2.15;;;22.10;93.30;;;;;;5025059;28;20491;-71
2022/06/04 08:46:55;;;;;;;3.75;2.00;;;22.30;92.90;;;;;;5069362;28;20070;-70
2022/06/04 08:49:34;;;;;;;5.15;2.53;;;22.60;92.90;;;;;;5095084;28;20115;-70
2022/06/04 08:52:08;;;;;;;5.13;2.30;;;22.10;93.00;;;;;;5071841;28;20476;-71
2022/06/04 08:57:35;;;;;;;3.70;2.20;;;22.50;93.80;;;;;;5057240;28;20044;-70
2022/06/04 09:00:14;;;;;;;6.40;1.70;;;22.80;93.40;;;;;;5074792;28;20056;-71
2022/06/04 09:03:03;;;;;;;7.47;2.30;;;22.80;93.80;;;;;;5056851;28;20036;-70
2022/06/04 09:05:37;;;;;;;5.28;2.35;;;22.70;93.50;;;;;;5074013;28;20153;-70
2022/06/04 09:08:09;;;;;;;5.47;2.00;;;22.50;93.60;;;;;;5056611;28;20491;-71
2022/06/04 09:10:53;;;;;;;3.92;2.15;;;22.40;93.80;;;;;;5056772;28;20045;-71
2022/06/04 09:13:31;;;;;;;4.15;1.48;;;22.00;93.70;;;;;;5057378;28;20055;-71
2022/06/04 09:16:03;;;;;;;4.07;1.90;;;21.60;94.30;;;;;;5057251;28;20052;-70
2022/06/04 09:18:35;;;;;;;3.42;1.98;;;21.40;94.90;;;;;;5074684;28;20441;-72
2022/06/04 09:21:02;;;;;;;3.58;1.98;;;21.30;95.00;;;;;;5076526;28;20044;-71
2022/06/04 09:23:34;;;;;;;3.58;1.83;;;21.20;95.30;;;;;;5076977;28;20048;-71
2022/06/04 09:26:14;;;;;;;5.28;1.80;;;21.10;96.10;;;;;;5095069;28;20040;-72
2022/06/04 09:29:20;;;;;;;3.10;1.85;;;21.40;95.60;;;;;;5060355;28;20433;-71
2022/06/04 09:32:08;;;;;;;5.15;1.67;;;21.70;94.60;;;;;;5094158;28;20051;-73
2022/06/04 09:34:47;;;;;;;4.55;1.90;;;21.70;94.70;;;;;;5076847;28;20055;-71
2022/06/04 09:37:13;;;;;;;12.55;2.85;;;21.70;94.30;;;;;;5072583;28;20067;-71
2022/06/04 09:40:00;;;;;;;19.90;2.85;;;21.90;94.10;;;;;;5062822;28;20087;-71
2022/06/04 09:42:32;;;;;;;15.90;1.90;;;21.60;94.50;;;;;;5077898;28;20060;-73
2022/06/04 09:45:05;;;;;;;2.45;1.48;;;21.30;95.10;;;;;;5076764;28;20048;-72
2022/06/04 09:47:42;;;;;;;2.75;1.52;;;21.20;95.70;;;;;;5098322;28;20322;-70
2022/06/04 09:50:37;;;;;;;3.58;1.70;;;21.40;95.40;;;;;;5072709;28;20044;-71
2022/06/04 09:53:08;;;;;;;3.85;1.88;;;21.40;94.60;;;;;;5077444;28;20144;-71
2022/06/04 09:55:34;;;;;;;3.10;1.70;;;21.30;94.20;;;;;;5043365;28;20052;-70
2022/06/04 09:58:16;;;;;;;3.65;1.90;;;21.20;94.80;;;;;;5074464;28;20040;-69
2022/06/04 10:01:00;;;;;;;3.70;1.80;;;21.20;95.50;;;;;;5080319;28;20048;-70
2022/06/04 10:03:29;;;;;;;3.63;1.85;;;21.10;95.90;;;;;;5098280;28;20067;-71
2022/06/04 10:06:03;;;;;;;6.15;1.83;;;21.10;96.00;;;;;;5080658;28;20059;-70
2022/06/04 10:08:30;;;;;;;4.03;1.60;;;21.10;96.00;;;;;;5067917;28;20041;-70
2022/06/04 10:11:05;;;;;;;3.45;1.50;;;21.00;96.20;;;;;;5076410;28;20418;-69
2022/06/04 10:13:42;;;;;;;4.75;1.75;;;20.80;96.90;;;;;;5063619;28;20048;-71
2022/06/04 10:16:21;;;;;;;3.70;1.70;;;21.10;97.00;;;;;;5076577;28;20067;-70
2022/06/04 10:19:17;;;;;;;2.95;1.60;;;21.30;96.00;;;;;;5093572;28;20040;-71
2022/06/04 10:21:49;;;;;;;2.78;1.48;;;21.20;95.70;;;;;;5066163;28;20067;-71
2022/06/04 10:24:20;;;;;;;3.80;1.80;;;21.50;96.30;;;;;;5097992;28;20541;-71
2022/06/04 10:26:46;;;;;;;2.28;1.38;;;21.80;95.90;;;;;;5075615;28;20059;-71
2022/06/04 10:29:39;;;;;;;4.32;1.73;;;21.80;95.40;;;;;;5073211;28;20044;-71
2022/06/04 10:32:23;;;;;;;2.72;1.92;;;21.60;95.60;;;;;;5074722;28;20044;-71
2022/06/04 10:34:52;;;;;;;3.53;1.63;;;21.20;95.50;;;;;;5085608;28;20044;-71
2022/06/04 10:37:27;;;;;;;3.88;1.95;;;20.80;96.00;;;;;;5066993;28;20040;-71
2022/06/04 10:40:20;;;;;;;4.20;1.88;;;20.70;96.10;;;;;;5076505;28;20055;-71
2022/06/04 10:43:18;;;;;;;3.05;1.40;;;20.60;96.10;;;;;;5076992;28;20051;-71
2022/06/04 10:45:52;;;;;;;4.32;1.65;;;20.70;96.20;;;;;;5059210;28;20044;-71
2022/06/04 10:48:53;;;;;;;4.07;1.77;;;21.00;96.50;;;;;;5059684;28;20048;-72
2022/06/04 10:51:37;;;;;;;2.72;1.65;;;21.00;95.90;;;;;;5068340;28;20063;-71
2022/06/04 10:54:20;;;;;;;3.50;1.77;;;21.10;96.70;;;;;;5079069;28;20052;-72
2022/06/04 10:56:56;;;;;;;2.50;1.50;;;21.00;96.70;;;;;;5072202;28;20045;-72
2022/06/04 10:59:41;;;;;;;3.78;1.67;;;20.80;97.20;;;;;;5058592;28;20122;-72
2022/06/04 11:02:25;;;;;;;6.15;2.03;;;20.80;97.90;;;;;;5076403;28;20088;-71
2022/06/04 11:04:58;;;;;;;4.43;2.00;;;20.80;97.80;;;;;;5075799;28;20357;-71
2022/06/04 11:07:23;;;;;;;3.93;1.67;;;20.90;98.40;;;;;;5059156;28;20060;-71
2022/06/04 11:09:51;;;;;;;5.65;1.77;;;20.90;97.60;;;;;;5058898;28;20479;-71
2022/06/04 11:12:22;;;;;;;3.85;1.80;;;20.60;97.60;;;;;;5058700;28;20449;-71
2022/06/04 11:14:57;;;;;;;3.53;2.13;;;20.70;98.20;;;;;;5076387;28;20045;-70
2022/06/04 11:17:44;;;;;;;6.28;2.45;;;20.60;98.10;;;;;;5076199;28;20048;-70
2022/06/04 11:20:14;;;;;;;7.68;2.35;;;20.40;99.10;;;;;;5058589;28;20140;-70
2022/06/04 11:23:03;;;;;;;3.80;1.92;;;20.50;98.60;;;;;;5059380;28;20368;-70
2022/06/04 11:25:32;;;;;;;5.93;1.90;;;20.40;98.60;;;;;;5075508;28;20055;-72
2022/06/04 11:28:05;;;;;;;4.32;1.88;;;20.50;99.30;;;;;;5058290;28;20048;-72
2022/06/04 11:30:50;;;;;;;4.15;2.03;;;20.90;99.80;;;;;;5058650;28;20131;-72
2022/06/04 11:33:54;;;;;;;4.80;2.45;;;21.00;99.00;;;;;;5058203;28;20048;-72
2022/06/04 11:36:36;;;;;;;2.92;1.42;;;20.90;98.70;;;;;;5074692;28;20045;-72
2022/06/04 11:39:33;;;;;;;3.47;1.73;;;20.60;99.80;;;;;;5075397;28;20356;-72
2022/06/04 11:42:17;;;;;;;3.97;2.13;;;20.50;99.50;;;;;;5058397;28;20457;-71
2022/06/04 11:44:45;;;;;;;3.20;1.65;;;20.50;99.90;;;;;;5057963;28;20048;-71
2022/06/04 11:47:24;;;;;;;4.57;1.65;;;20.50;99.90;;;;;;5057872;28;20055;-73
2022/06/04 11:50:12;;;;;;;3.90;1.88;;;20.60;99.80;;;;;;5058230;28;20123;-72
2022/06/04 11:52:49;;;;;;;3.60;1.73;;;20.90;99.70;;;;;;5080372;28;20122;-73
2022/06/04 11:55:29;;;;;;;11.23;2.47;;;20.80;99.10;;;;;;5095989;28;20413;-72
2022/06/04 11:58:17;;;;;;;3.85;1.83;;;20.90;99.30;;;;;;5077813;28;20464;-72
2022/06/04 12:00:46;;;;;;;7.30;1.88;;;21.10;99.60;;;;;;5095328;28;20388;-72
2022/06/04 12:03:14;;;;;;;5.35;2.58;;;21.20;99.40;;;;;;5077915;28;20475;-73
2022/06/04 12:05:57;;;;;;;6.15;2.60;;;21.20;98.70;;;;;;5077866;28;20108;-73
2022/06/04 12:08:27;;;;;;;3.75;2.03;;;21.10;99.20;;;;;;5073153;28;20582;-72
2022/06/04 12:11:10;;;;;;;11.00;2.00;;;21.30;99.30;;;;;;5056997;28;20052;-73
2022/06/04 12:14:12;;;;;;;4.53;2.45;;;21.40;98.90;;;;;;5075317;28;20097;-72
2022/06/04 12:16:45;;;;;;;3.70;2.10;;;21.40;98.90;;;;;;5075063;28;20051;-73
2022/06/04 12:25:40;;;;;;;3.28;1.70;;;21.40;98.00;;;;;;5074402;28;20044;-72
2022/06/04 12:28:42;;;;;;;3.80;1.77;;;21.40;98.40;;;;;;5075046;28;20032;-73
2022/06/04 12:31:08;;;;;;;6.00;2.13;;;21.00;98.30;;;;;;5058457;28;20048;-72
2022/06/04 12:33:39;;;;;;;3.30;1.85;;;20.90;99.60;;;;;;5065849;28;20054;-73
2022/06/04 12:36:11;;;;;;;3.63;1.90;;;20.90;98.70;;;;;;5068183;28;20492;-72
2022/06/04 12:38:45;;;;;;;9.25;2.92;;;20.60;99.40;;;;;;5059704;28;20063;-73
2022/06/04 12:41:15;;;;;;;4.35;1.88;;;20.70;99.50;;;;;;5077246;28;20051;-72
2022/06/04 12:43:46;;;;;;;4.88;2.15;;;20.60;99.60;;;;;;5094976;28;20059;-71
2022/06/04 12:46:29;;;;;;;5.05;2.10;;;20.50;99.30;;;;;;5077437;28;20140;-73
2022/06/04 12:49:20;;;;;;;4.10;2.08;;;20.50;99.70;;;;;;5077885;28;20059;-72
2022/06/04 12:52:05;;;;;;;4.43;2.13;;;20.40;99.60;;;;;;5072481;28;20481;-71
2022/06/04 12:54:52;;;;;;;4.43;2.20;;;20.50;99.60;;;;;;5074282;28;20044;-71
2022/06/04 12:57:49;;;;;;;5.00;2.17;;;20.70;99.70;;;;;;5057055;28;20059;-70
2022/06/04 13:00:18;;;;;;;3.25;1.73;;;20.80;99.40;;;;;;5068627;28;20467;-71
2022/06/04 13:03:06;;;;;;;5.25;2.63;;;21.20;99.80;;;;;;5057462;28;20044;-72
2022/06/04 13:05:36;;;;;;;7.53;2.78;;;21.20;99.30;;;;;;5044160;28;20060;-72
2022/06/04 13:08:23;;;;;;;7.68;2.58;;;21.40;98.80;;;;;;5057013;28;20048;-74
2022/06/04 13:11:22;;;;;;;4.13;2.00;;;21.40;98.90;;;;;;5067741;28;20135;-73
2022/06/04 13:14:03;;;;;;;3.70;2.10;;;21.30;99.50;;;;;;5060200;28;20135;-75
2022/06/04 13:16:30;;;;;;;11.43;2.20;;;21.10;99.00;;;;;;5097244;28;20044;-74
2022/06/04 13:19:10;;;;;;;5.78;1.92;;;21.20;99.80;;;;;;5097346;28;20047;-75
2022/06/04 13:21:41;;;;;;;4.22;2.00;;;21.30;99.40;;;;;;5077775;28;20052;-74
2022/06/04 13:24:16;;;;;;;5.22;2.22;;;21.40;99.20;;;;;;5083343;28;20471;-75
2022/06/04 13:27:23;;;;;;;5.32;2.58;;;21.10;99.30;;;;;;5088611;28;20044;-75
2022/06/04 13:29:56;;;;;;;4.72;2.58;;;21.00;98.90;;;;;;4995917;28;20046;-78
2022/06/04 13:32:22;;;;;;;5.83;2.87;;;21.00;99.20;;;;;;5062568;28;20468;-77
2022/06/04 13:34:49;;;;;;;5.22;2.50;;;21.10;99.80;;;;;;5068410;28;20057;-77
2022/06/04 13:37:24;;;;;;;6.13;2.30;;;20.90;99.20;;;;;;5069263;28;20071;-75
2022/06/04 13:39:52;;;;;;;3.95;2.40;;;20.70;99.80;;;;;;5073448;28;20053;-77
2022/06/04 13:42:40;;;;;;;11.80;2.85;;;20.80;99.70;;;;;;5064371;28;20181;-76